createdAt,value
2019-02-05T00:00:55.765Z,64.58
2019-02-05T00:03:22.699Z,64.79
2019-02-05T00:05:49.863Z,64.83
2019-02-05T00:08:16.416Z,65.11
2019-02-05T00:10:43.002Z,65.36
2019-02-05T00:13:10.045Z,65.49
2019-02-05T00:15:36.605Z,65.63
2019-02-05T00:18:03.188Z,65.60
2019-02-05T00:20:29.737Z,65.59
2019-02-05T00:22:56.303Z,65.87
2019-02-05T00:25:22.864Z,65.69
2019-02-05T00:27:49.430Z,65.68
2019-02-05T00:30:15.978Z,65.63
2019-02-05T00:32:50.384Z,65.66
2019-02-05T00:35:16.939Z,65.59
2019-02-05T00:37:43.512Z,65.44
2019-02-05T00:40:10.277Z,65.38
2019-02-05T00:42:36.837Z,65.62
2019-02-05T00:45:05.297Z,65.61
2019-02-05T00:47:32.335Z,65.50
2019-02-05T00:49:59.234Z,65.86
2019-02-05T00:52:25.931Z,65.79
2019-02-05T00:54:52.472Z,66.18
2019-02-05T00:57:19.046Z,66.53
2019-02-05T00:59:45.592Z,66.76
2019-02-05T01:02:12.162Z,66.97
2019-02-05T01:04:38.714Z,67.09
2019-02-05T01:07:05.591Z,67.49
2019-02-05T01:09:32.142Z,67.99
2019-02-05T01:11:58.696Z,68.15
2019-02-05T01:14:25.281Z,68.43
2019-02-05T01:16:51.866Z,68.48
2019-02-05T01:19:18.422Z,68.74
2019-02-05T01:21:44.970Z,68.86
2019-02-05T01:24:11.547Z,69.02
2019-02-05T01:26:38.393Z,68.95
2019-02-05T01:29:04.956Z,68.74
2019-02-05T01:31:31.505Z,68.80
2019-02-05T01:33:58.070Z,68.98
2019-02-05T01:36:24.632Z,68.75
2019-02-05T01:38:51.195Z,68.49
2019-02-05T01:41:17.753Z,68.72
2019-02-05T01:43:44.323Z,68.71
2019-02-05T01:46:11.180Z,68.46
2019-02-05T01:48:37.749Z,68.76
2019-02-05T01:51:04.299Z,68.81
2019-02-05T01:53:30.869Z,68.65
2019-02-05T01:55:57.418Z,68.65
2019-02-05T01:58:23.980Z,68.58
2019-02-05T02:00:50.529Z,68.81
2019-02-05T02:03:17.091Z,68.78
2019-02-05T02:05:43.655Z,68.95
2019-02-05T02:08:10.350Z,68.87
2019-02-05T02:10:36.892Z,68.74
2019-02-05T02:13:03.468Z,68.50
2019-02-05T02:15:30.040Z,68.25
2019-02-05T02:17:56.619Z,68.39
2019-02-05T02:20:23.200Z,68.76
2019-02-05T02:22:49.743Z,68.62
2019-02-05T02:25:16.331Z,68.83
2019-02-05T02:27:42.908Z,69.11
2019-02-05T02:30:24.387Z,69.17
2019-02-05T02:32:50.947Z,70.10
2019-02-05T02:35:19.431Z,70.66
2019-02-05T02:37:45.980Z,71.39
2019-02-05T02:40:12.660Z,71.37
2019-02-05T02:42:39.204Z,72.07
2019-02-05T02:45:07.298Z,72.55
2019-02-05T02:47:33.843Z,72.79
2019-02-05T02:50:00.427Z,72.99
2019-02-05T02:52:26.986Z,74.56
2019-02-05T02:54:53.550Z,76.28
2019-02-05T02:57:21.501Z,78.05
2019-02-05T02:59:48.071Z,79.35
2019-02-05T03:02:14.628Z,80.13
2019-02-05T03:04:41.189Z,81.04
2019-02-05T03:07:07.739Z,80.51
2019-02-05T03:09:34.320Z,81.19
2019-02-05T03:12:00.860Z,81.02
2019-02-05T03:14:27.437Z,80.83
2019-02-05T03:16:53.982Z,81.70
2019-02-05T03:19:20.955Z,82.49
2019-02-05T03:21:47.501Z,82.04
2019-02-05T03:24:14.071Z,83.69
2019-02-05T03:26:40.621Z,83.29
2019-02-05T03:29:07.202Z,84.10
2019-02-05T03:31:33.753Z,84.19
2019-02-05T03:34:00.332Z,84.66
2019-02-05T03:36:26.879Z,84.78
2019-02-05T03:38:53.452Z,84.87
2019-02-05T03:41:20.010Z,84.18
2019-02-05T03:43:46.785Z,84.89
2019-02-05T03:46:14.958Z,85.19
2019-02-05T03:48:42.850Z,84.60
2019-02-05T03:51:32.085Z,85.41
2019-02-05T03:54:14.663Z,85.88
2019-02-05T03:57:00.751Z,85.88
2019-02-05T04:00:08.122Z,85.54
2019-02-05T04:03:01.052Z,85.75
2019-02-05T04:05:52.189Z,85.60
2019-02-05T04:09:09.896Z,86.05
2019-02-05T04:12:30.377Z,85.74
2019-02-05T04:15:30.143Z,85.38
2019-02-05T04:18:44.212Z,85.51
2019-02-05T04:21:38.765Z,86.20
2019-02-05T04:24:44.901Z,86.67
2019-02-05T04:27:26.874Z,85.97
2019-02-05T04:30:15.411Z,86.10
2019-02-05T04:32:54.506Z,86.49
2019-02-05T04:35:35.220Z,86.77
2019-02-05T04:38:39.700Z,86.99
2019-02-05T04:41:19.587Z,86.61
2019-02-05T04:44:10.062Z,86.97
2019-02-05T04:47:12.168Z,86.64
2019-02-05T04:50:06.175Z,86.52
2019-02-05T04:53:05.074Z,86.49
2019-02-05T04:56:10.437Z,86.72
2019-02-05T04:59:07.826Z,86.47
2019-02-05T05:02:09.237Z,86.35
2019-02-05T05:04:57.416Z,86.52
2019-02-05T05:08:09.632Z,86.68
2019-02-05T05:10:36.209Z,87.07
2019-02-05T05:13:02.864Z,86.77
2019-02-05T05:15:29.455Z,86.75
2019-02-05T05:17:56.000Z,86.79
2019-02-05T05:20:22.567Z,86.55
2019-02-05T05:22:49.135Z,86.60
2019-02-05T05:25:15.694Z,86.18
2019-02-05T05:27:42.251Z,86.62
2019-02-05T05:30:12.491Z,86.34
2019-02-05T05:32:39.041Z,85.97
2019-02-05T05:35:06.550Z,85.64
2019-02-05T05:37:33.116Z,85.82
2019-02-05T05:39:59.673Z,85.90
2019-02-05T05:42:26.684Z,85.93
2019-02-05T05:44:53.219Z,86.14
2019-02-05T05:47:19.764Z,86.40
2019-02-05T05:49:46.376Z,86.11
2019-02-05T05:52:12.916Z,85.96
2019-02-05T05:54:39.477Z,85.69
2019-02-05T05:57:06.035Z,85.31
2019-02-05T05:59:32.582Z,84.92
2019-02-05T06:01:59.642Z,84.98
2019-02-05T06:04:26.204Z,84.76
2019-02-05T06:06:52.778Z,84.57
2019-02-05T06:09:19.349Z,84.76
2019-02-05T06:11:45.908Z,85.20
2019-02-05T06:14:12.486Z,85.54
2019-02-05T06:16:39.049Z,85.70
2019-02-05T06:19:05.609Z,85.48
2019-02-05T06:21:32.180Z,85.33
2019-02-05T06:23:59.042Z,85.87
2019-02-05T06:26:25.615Z,86.35
2019-02-05T06:28:52.189Z,86.26
2019-02-05T06:31:18.748Z,86.05
2019-02-05T06:33:45.306Z,86.21
2019-02-05T06:36:11.878Z,86.27
2019-02-05T06:38:38.441Z,86.21
2019-02-05T06:41:04.997Z,86.46
2019-02-05T06:43:31.577Z,86.15
2019-02-05T06:45:58.415Z,86.53
2019-02-05T06:48:24.979Z,86.27
2019-02-05T06:50:51.551Z,86.34
2019-02-05T06:53:18.118Z,86.23
2019-02-05T06:55:44.688Z,86.42
2019-02-05T06:58:11.266Z,86.59
2019-02-05T07:00:37.814Z,86.62
2019-02-05T07:03:04.468Z,86.57
2019-02-05T07:05:31.407Z,86.78
2019-02-05T07:07:57.977Z,86.94
2019-02-05T07:10:24.529Z,87.06
2019-02-05T07:12:51.107Z,87.09
2019-02-05T07:15:17.666Z,87.36
2019-02-05T07:17:49.833Z,86.97
2019-02-05T07:20:13.041Z,87.03
2019-02-05T07:22:39.610Z,86.96
2019-02-05T07:25:08.794Z,87.14
2019-02-05T07:27:35.365Z,86.99
2019-02-05T07:30:01.918Z,87.21
2019-02-05T07:32:28.497Z,87.35
2019-02-05T07:34:55.052Z,87.05
2019-02-05T07:37:21.614Z,87.28
2019-02-05T07:39:48.180Z,87.18
2019-02-05T07:42:14.756Z,87.55
2019-02-05T07:44:41.310Z,87.67
2019-02-05T07:47:07.891Z,87.66
2019-02-05T07:49:34.778Z,87.90
2019-02-05T07:52:01.334Z,88.50
2019-02-05T07:54:27.918Z,88.68
2019-02-05T07:56:54.494Z,88.80
2019-02-05T07:59:21.051Z,88.67
2019-02-05T08:01:47.612Z,88.87
2019-02-05T08:04:14.208Z,89.28
2019-02-05T08:06:40.767Z,88.93
2019-02-05T08:09:08.808Z,89.09
2019-02-05T08:11:35.674Z,88.96
2019-02-05T08:14:02.390Z,89.00
2019-02-05T08:16:28.938Z,88.91
2019-02-05T08:18:55.503Z,88.48
2019-02-05T08:21:22.069Z,88.70
2019-02-05T08:23:48.629Z,88.33
2019-02-05T08:26:15.194Z,88.12
2019-02-05T08:28:41.764Z,88.44
2019-02-05T08:31:08.311Z,88.15
2019-02-05T08:33:34.878Z,87.99
2019-02-05T08:36:01.527Z,87.78
2019-02-05T08:38:28.111Z,87.40
2019-02-05T08:40:54.661Z,87.77
2019-02-05T08:43:21.245Z,87.62
2019-02-05T08:45:56.365Z,87.17
2019-02-05T08:48:16.272Z,86.71
2019-02-05T08:50:42.828Z,86.83
2019-02-05T08:53:09.395Z,86.60
2019-02-05T08:55:35.984Z,86.61
2019-02-05T08:58:04.873Z,86.60
2019-02-05T09:00:33.266Z,86.82
2019-02-05T09:02:59.814Z,86.78
2019-02-05T09:05:26.390Z,86.63
2019-02-05T09:07:52.957Z,86.41
2019-02-05T09:10:27.507Z,86.12
2019-02-05T09:12:54.094Z,86.22
2019-02-05T09:15:29.122Z,86.34
2019-02-05T09:17:49.142Z,86.22
2019-02-05T09:20:15.936Z,85.95
2019-02-05T09:22:42.509Z,85.90
2019-02-05T09:25:09.493Z,85.37
2019-02-05T09:27:36.048Z,85.03
2019-02-05T09:30:05.338Z,85.50
2019-02-05T09:32:34.971Z,85.70
2019-02-05T09:35:00.390Z,85.68
2019-02-05T09:37:27.297Z,85.85
2019-02-05T09:39:53.973Z,86.17
2019-02-05T09:42:20.612Z,85.73
2019-02-05T09:44:47.260Z,85.76
2019-02-05T09:47:13.814Z,85.66
2019-02-05T09:49:40.384Z,85.84
2019-02-05T09:52:06.940Z,86.34
2019-02-05T09:54:33.506Z,86.69
2019-02-05T09:57:00.060Z,87.22
2019-02-05T09:59:26.952Z,87.38
2019-02-05T10:01:53.523Z,87.00
2019-02-05T10:04:20.098Z,87.55
2019-02-05T10:06:46.670Z,87.52
2019-02-05T10:09:13.226Z,87.50
2019-02-05T10:11:39.792Z,87.36
2019-02-05T10:14:06.360Z,87.45
2019-02-05T10:16:32.933Z,87.83
2019-02-05T10:18:59.472Z,87.81
2019-02-05T10:21:26.432Z,88.08
2019-02-05T10:23:53.007Z,88.53
2019-02-05T10:26:19.561Z,88.37
2019-02-05T10:28:46.126Z,88.44
2019-02-05T10:31:12.703Z,87.97
2019-02-05T10:33:39.267Z,87.87
2019-02-05T10:36:05.843Z,87.12
2019-02-05T10:38:32.398Z,87.52
2019-02-05T10:40:58.973Z,86.77
2019-02-05T10:43:25.821Z,87.01
2019-02-05T10:45:52.376Z,87.00
2019-02-05T10:48:18.929Z,86.90
2019-02-05T10:50:45.520Z,86.96
2019-02-05T10:53:12.074Z,86.72
2019-02-05T10:55:38.638Z,86.57
2019-02-05T10:58:06.071Z,86.17
2019-02-05T11:00:32.622Z,85.71
2019-02-05T11:03:00.604Z,86.36
2019-02-05T11:05:28.348Z,85.92
2019-02-05T11:07:54.928Z,86.01
2019-02-05T11:10:21.517Z,85.63
2019-02-05T11:12:48.057Z,85.23
2019-02-05T11:15:16.780Z,85.80
2019-02-05T11:17:43.376Z,85.92
2019-02-05T11:20:12.822Z,85.48
2019-02-05T11:22:39.382Z,85.73
2019-02-05T11:25:06.483Z,85.19
2019-02-05T11:27:33.067Z,85.47
2019-02-05T11:29:59.608Z,86.13
2019-02-05T11:32:26.183Z,85.75
2019-02-05T11:34:52.744Z,85.37
2019-02-05T11:37:19.309Z,85.45
2019-02-05T11:39:45.851Z,85.19
2019-02-05T11:42:12.416Z,85.41
2019-02-05T11:44:38.957Z,85.55
2019-02-05T11:47:05.759Z,85.44
2019-02-05T11:49:32.313Z,85.43
2019-02-05T11:51:58.878Z,85.17
2019-02-05T11:54:25.431Z,85.78
2019-02-05T11:56:51.993Z,85.51
2019-02-05T11:59:18.545Z,85.82
2019-02-05T12:01:45.147Z,86.20
2019-02-05T12:04:11.701Z,86.53
2019-02-05T12:06:38.243Z,86.53
2019-02-05T12:09:20.656Z,86.57
2019-02-05T12:11:47.307Z,85.49
2019-02-05T12:14:13.908Z,85.81
2019-02-05T12:16:40.481Z,86.07
2019-02-05T12:19:07.077Z,86.16
2019-02-05T12:21:33.642Z,86.31
2019-02-05T12:24:00.215Z,86.26
2019-02-05T12:26:26.852Z,85.92
2019-02-05T12:28:53.430Z,85.64
2019-02-05T12:31:19.982Z,85.86
2019-02-05T12:33:46.550Z,86.04
2019-02-05T12:36:13.112Z,85.78
2019-02-05T12:38:39.699Z,85.71
2019-02-05T12:41:06.248Z,85.69
2019-02-05T12:43:32.831Z,85.58
2019-02-05T12:45:59.384Z,85.50
2019-02-05T12:48:26.068Z,85.31
2019-02-05T12:50:52.621Z,85.57
2019-02-05T12:53:19.185Z,85.72
2019-02-05T12:55:48.238Z,85.84
2019-02-05T12:58:14.804Z,86.33
2019-02-05T13:00:43.637Z,86.40
2019-02-05T13:03:10.692Z,86.20
2019-02-05T13:05:37.364Z,86.33
2019-02-05T13:08:05.418Z,86.22
2019-02-05T13:10:34.182Z,86.21
2019-02-05T13:13:00.765Z,85.39
2019-02-05T13:15:27.330Z,85.15
2019-02-05T13:17:53.922Z,85.29
2019-02-05T13:20:22.695Z,85.38
2019-02-05T13:22:49.252Z,85.36
2019-02-05T13:25:18.637Z,85.00
2019-02-05T13:27:45.464Z,85.57
2019-02-05T13:30:14.179Z,85.25
2019-02-05T13:32:40.732Z,85.36
2019-02-05T13:35:08.274Z,84.94
2019-02-05T13:37:34.855Z,84.43
2019-02-05T13:40:01.426Z,84.05
2019-02-05T13:42:27.976Z,83.90
2019-02-05T13:44:54.546Z,84.09
2019-02-05T13:47:21.155Z,84.07
2019-02-05T13:49:47.771Z,84.52
2019-02-05T13:52:14.319Z,84.39
2019-02-05T13:54:40.884Z,83.84
2019-02-05T13:57:07.432Z,84.74
2019-02-05T13:59:34.005Z,84.92
2019-02-05T14:02:00.546Z,84.49
2019-02-05T14:04:27.115Z,84.28
2019-02-05T14:06:53.673Z,84.56
2019-02-05T14:09:20.230Z,85.18
2019-02-05T14:11:46.786Z,84.69
2019-02-05T14:14:13.369Z,84.87
2019-02-05T14:16:39.926Z,84.79
2019-02-05T14:19:06.511Z,84.12
2019-02-05T14:21:33.253Z,84.24
2019-02-05T14:23:59.840Z,84.07
2019-02-05T14:26:26.390Z,83.75
2019-02-05T14:28:52.997Z,83.30
2019-02-05T14:31:29.938Z,83.12
2019-02-05T14:33:47.997Z,83.05
2019-02-05T14:36:14.564Z,83.27
2019-02-05T14:38:41.108Z,83.24
2019-02-05T14:41:07.868Z,81.95
2019-02-05T14:43:34.424Z,81.87
2019-02-05T14:46:00.984Z,82.14
2019-02-05T14:48:27.541Z,82.01
2019-02-05T14:50:54.106Z,82.21
2019-02-05T14:53:20.649Z,82.38
2019-02-05T14:55:47.239Z,82.04
2019-02-05T14:58:14.803Z,82.18
2019-02-05T15:00:41.384Z,81.96
2019-02-05T15:03:09.200Z,82.08
2019-02-05T15:05:35.926Z,81.72
2019-02-05T15:08:02.593Z,81.50
2019-02-05T15:10:29.181Z,81.87
2019-02-05T15:12:55.725Z,82.15
2019-02-05T15:15:22.497Z,82.55
2019-02-05T15:17:49.343Z,82.46
2019-02-05T15:20:21.551Z,82.66
2019-02-05T15:22:48.103Z,82.43
2019-02-05T15:25:14.682Z,82.20
2019-02-05T15:27:41.241Z,82.16
2019-02-05T15:30:11.653Z,82.30
2019-02-05T15:32:45.391Z,82.15
2019-02-05T15:35:11.940Z,81.31
2019-02-05T15:37:38.512Z,81.59
2019-02-05T15:40:05.925Z,81.40
2019-02-05T15:42:32.482Z,81.04
2019-02-05T15:44:59.036Z,81.21
2019-02-05T15:47:25.602Z,81.35
2019-02-05T15:49:52.456Z,81.03
2019-02-05T15:52:19.032Z,81.37
2019-02-05T15:54:45.573Z,81.45
2019-02-05T15:57:12.142Z,81.67
2019-02-05T15:59:38.695Z,81.78
2019-02-05T16:02:06.652Z,81.65
2019-02-05T16:04:33.413Z,81.35
2019-02-05T16:06:59.971Z,81.50
2019-02-05T16:09:26.707Z,81.72
2019-02-05T16:11:53.273Z,81.78
2019-02-05T16:14:19.839Z,82.07
2019-02-05T16:16:46.403Z,81.79
2019-02-05T16:19:12.951Z,82.03
2019-02-05T16:21:39.522Z,82.00
2019-02-05T16:24:06.053Z,81.81
2019-02-05T16:26:32.609Z,81.58
2019-02-05T16:28:59.557Z,82.06
2019-02-05T16:31:27.857Z,82.02
2019-02-05T16:33:54.582Z,81.48
2019-02-05T16:36:21.151Z,81.87
2019-02-05T16:38:47.728Z,82.12
2019-02-05T16:41:14.293Z,82.05
2019-02-05T16:43:40.871Z,81.56
2019-02-05T16:46:07.561Z,81.68
2019-02-05T16:48:34.510Z,81.80
2019-02-05T16:51:01.109Z,82.35
2019-02-05T16:53:27.656Z,82.18
2019-02-05T16:55:54.227Z,82.27
2019-02-05T16:58:20.769Z,82.08
2019-02-05T17:00:47.335Z,82.01
2019-02-05T17:03:13.899Z,82.36
2019-02-05T17:05:40.485Z,82.15
2019-02-05T17:08:07.359Z,82.41
2019-02-05T17:10:33.916Z,81.67
2019-02-05T17:13:00.513Z,81.25
2019-02-05T17:15:27.086Z,81.48
2019-02-05T17:17:53.656Z,81.10
2019-02-05T17:20:25.073Z,81.68
2019-02-05T17:22:51.646Z,81.48
2019-02-05T17:25:18.540Z,81.50
2019-02-05T17:27:45.092Z,81.57
2019-02-05T17:30:17.463Z,81.58
2019-02-05T17:32:44.018Z,81.12
2019-02-05T17:35:10.563Z,80.96
2019-02-05T17:37:37.711Z,81.07
2019-02-05T17:40:05.998Z,81.58
2019-02-05T17:42:32.568Z,80.45
2019-02-05T17:44:59.120Z,80.69
2019-02-05T17:47:25.699Z,80.13
2019-02-05T17:49:52.269Z,80.26
2019-02-05T17:52:18.858Z,80.37
2019-02-05T17:54:45.408Z,80.42
2019-02-05T17:57:11.961Z,80.51
2019-02-05T17:59:38.534Z,80.10
2019-02-05T18:02:05.084Z,79.80
2019-02-05T18:04:31.669Z,79.88
2019-02-05T18:06:58.219Z,79.52
2019-02-05T18:09:24.803Z,79.69
2019-02-05T18:11:51.366Z,79.92
2019-02-05T18:14:17.934Z,79.75
2019-02-05T18:16:45.384Z,79.87
2019-02-05T18:19:12.174Z,79.52
2019-02-05T18:21:39.253Z,79.28
2019-02-05T18:24:05.860Z,79.51
2019-02-05T18:26:32.428Z,79.44
2019-02-05T18:28:58.985Z,79.46
2019-02-05T18:31:25.534Z,79.57
2019-02-05T18:33:52.106Z,79.54
2019-02-05T18:36:18.674Z,79.76
2019-02-05T18:38:45.250Z,79.70
2019-02-05T18:41:12.232Z,79.65
2019-02-05T18:43:38.804Z,79.07
2019-02-05T18:46:05.383Z,78.95
2019-02-05T18:48:31.953Z,78.82
2019-02-05T18:50:58.513Z,79.21
2019-02-05T18:53:25.082Z,78.85
2019-02-05T18:55:51.652Z,79.25
2019-02-05T18:58:18.240Z,78.93
2019-02-05T19:00:45.219Z,79.07
2019-02-05T19:03:16.344Z,79.65
2019-02-05T19:05:40.245Z,78.95
2019-02-05T19:08:07.047Z,78.95
2019-02-05T19:10:33.588Z,79.71
2019-02-05T19:13:00.155Z,79.65
2019-02-05T19:15:28.594Z,79.71
2019-02-05T19:17:55.161Z,79.61
2019-02-05T19:20:23.910Z,79.36
2019-02-05T19:22:50.464Z,79.44
2019-02-05T19:25:26.113Z,79.58
2019-02-05T19:27:52.697Z,79.70
2019-02-05T19:30:20.679Z,79.82
2019-02-05T19:32:47.246Z,80.02
2019-02-05T19:35:14.091Z,80.13
2019-02-05T19:37:40.657Z,79.90
2019-02-05T19:40:07.256Z,80.49
2019-02-05T19:42:33.834Z,80.89
2019-02-05T19:45:12.718Z,80.35
2019-02-05T19:47:39.419Z,79.92
2019-02-05T19:50:06.224Z,79.85
2019-02-05T19:52:32.967Z,80.40
2019-02-05T19:54:59.528Z,80.31
2019-02-05T19:57:26.084Z,80.52
2019-02-05T19:59:52.847Z,80.50
2019-02-05T20:02:19.403Z,80.14
2019-02-05T20:04:45.973Z,80.00
2019-02-05T20:07:12.529Z,80.32
2019-02-05T20:09:39.077Z,80.11
2019-02-05T20:12:05.645Z,80.24
2019-02-05T20:14:32.212Z,80.61
2019-02-05T20:16:59.226Z,80.43
2019-02-05T20:19:25.767Z,80.27
2019-02-05T20:21:52.374Z,80.52
2019-02-05T20:24:18.944Z,80.31
2019-02-05T20:26:47.603Z,80.12
2019-02-05T20:29:13.956Z,80.21
2019-02-05T20:31:40.498Z,80.20
2019-02-05T20:34:07.067Z,79.87
2019-02-05T20:36:33.612Z,79.46
2019-02-05T20:39:00.528Z,79.54
2019-02-05T20:41:27.026Z,79.27
2019-02-05T20:43:53.595Z,79.27
2019-02-05T20:46:20.140Z,79.44
2019-02-05T20:48:46.708Z,79.27
2019-02-05T20:51:13.255Z,79.60
2019-02-05T20:53:39.831Z,79.60
2019-02-05T20:56:06.375Z,79.01
2019-02-05T20:58:32.967Z,79.15
2019-02-05T21:00:59.904Z,79.47
2019-02-05T21:03:26.495Z,79.52
2019-02-05T21:05:53.032Z,79.49
2019-02-05T21:08:19.615Z,79.46
2019-02-05T21:10:46.167Z,79.86
2019-02-05T21:13:12.706Z,79.50
2019-02-05T21:15:39.296Z,79.17
2019-02-05T21:18:05.866Z,79.27
2019-02-05T21:20:33.232Z,79.89
2019-02-05T21:23:00.827Z,80.14
2019-02-05T21:25:27.406Z,80.72
2019-02-05T21:27:54.047Z,79.92
2019-02-05T21:30:20.630Z,79.46
2019-02-05T21:32:47.973Z,79.55
2019-02-05T21:35:14.863Z,79.52
2019-02-05T21:37:41.412Z,79.40
2019-02-05T21:40:11.215Z,78.97
2019-02-05T21:42:37.850Z,79.29
2019-02-05T21:45:05.496Z,79.79
2019-02-05T21:47:32.042Z,80.01
2019-02-05T21:49:58.614Z,80.08
2019-02-05T21:52:25.166Z,79.69
2019-02-05T21:54:51.731Z,79.16
2019-02-05T21:57:18.281Z,79.32
2019-02-05T21:59:44.837Z,79.10
2019-02-05T22:02:11.780Z,79.65
2019-02-05T22:04:38.344Z,79.45
2019-02-05T22:07:05.040Z,78.91
2019-02-05T22:09:31.586Z,79.64
2019-02-05T22:11:58.123Z,80.01
2019-02-05T22:14:24.706Z,80.25
2019-02-05T22:16:51.360Z,80.55
2019-02-05T22:19:21.000Z,79.53
2019-02-05T22:21:46.785Z,79.68
2019-02-05T22:24:13.436Z,79.64
2019-02-05T22:26:40.016Z,79.75
2019-02-05T22:29:06.964Z,80.53
2019-02-05T22:31:33.960Z,81.67
2019-02-05T22:34:00.525Z,81.40
2019-02-05T22:36:27.088Z,81.99
2019-02-05T22:38:53.642Z,81.82
2019-02-05T22:41:20.506Z,82.44
2019-02-05T22:43:47.056Z,83.22
2019-02-05T22:46:13.622Z,84.12
2019-02-05T22:48:40.165Z,85.92
2019-02-05T22:51:06.735Z,85.79
2019-02-05T22:53:33.599Z,85.87
2019-02-05T22:56:00.176Z,85.01
2019-02-05T22:58:26.732Z,85.45
2019-02-05T23:01:38.218Z,86.60
2019-02-05T23:04:50.884Z,87.43
2019-02-05T23:07:19.781Z,87.99
2019-02-05T23:10:15.354Z,88.44
2019-02-05T23:13:02.686Z,88.60
2019-02-05T23:15:29.676Z,88.51
2019-02-05T23:17:56.231Z,89.05
2019-02-05T23:20:23.048Z,89.37
2019-02-05T23:22:49.906Z,89.98
2019-02-05T23:25:16.502Z,90.64
2019-02-05T23:27:43.057Z,90.57
2019-02-05T23:30:12.703Z,90.55
2019-02-05T23:32:39.278Z,90.96
2019-02-05T23:35:06.140Z,90.68
2019-02-05T23:37:32.708Z,90.56
2019-02-05T23:39:59.651Z,91.02
2019-02-05T23:42:26.228Z,90.24
2019-02-05T23:44:53.021Z,89.97
2019-02-05T23:47:19.603Z,90.36
2019-02-05T23:49:46.154Z,90.72
2019-02-05T23:52:12.726Z,91.33
2019-02-05T23:54:39.279Z,91.08
2019-02-05T23:57:05.850Z,91.13
2019-02-05T23:59:32.707Z,91.46
